Time;durP1;ratioP1;P1;durP2;ratioP2;P2;SDS_P1;SDS_P2;PMS_P1;PMS_P2;Temp;Humidity;BMP_temperature;BMP_pressure;BME280_temperature;BME280_humidity;BME280_pressure;Samples;Min_cycle;Max_cycle;Signal;HPM_P1;HPM_P2
2023/08/03 00:00:32;;;;;;;1.60;1.33;;;21.60;80.90;;;;;;4985121;28;20195;-71
2023/08/03 00:02:58;;;;;;;1.63;1.10;;;21.50;81.50;;;;;;4993226;28;20193;-71
2023/08/03 00:05:24;;;;;;;1.85;1.20;;;21.60;80.90;;;;;;4994008;28;20239;-71
2023/08/03 00:07:51;;;;;;;1.48;1.15;;;21.50;80.70;;;;;;4993088;28;20220;-72
2023/08/03 00:10:19;;;;;;;1.58;1.10;;;21.50;80.80;;;;;;4984781;28;20208;-70
2023/08/03 00:12:46;;;;;;;2.20;1.23;;;21.60;80.80;;;;;;5000952;28;20682;-70
2023/08/03 00:15:15;;;;;;;2.05;1.42;;;21.50;80.70;;;;;;4985777;28;20204;-70
2023/08/03 00:17:42;;;;;;;1.30;1.20;;;21.50;80.60;;;;;;4979632;28;20200;-70
2023/08/03 00:20:09;;;;;;;1.50;1.40;;;21.50;80.50;;;;;;4987167;28;20192;-71
2023/08/03 00:22:35;;;;;;;1.77;1.23;;;21.50;80.60;;;;;;4970133;28;20224;-71
2023/08/03 00:25:02;;;;;;;2.95;1.10;;;21.60;80.50;;;;;;4968293;28;20570;-71
2023/08/03 00:27:28;;;;;;;2.38;1.50;;;21.50;80.40;;;;;;4984068;28;20252;-70
2023/08/03 00:29:54;;;;;;;1.60;1.30;;;21.50;80.40;;;;;;5007349;28;20224;-70
2023/08/03 00:32:20;;;;;;;1.27;1.17;;;21.60;80.50;;;;;;4985422;28;20243;-70
2023/08/03 00:34:46;;;;;;;1.90;1.10;;;21.50;80.40;;;;;;5006176;28;20273;-70
2023/08/03 00:37:13;;;;;;;1.25;1.15;;;21.50;80.40;;;;;;4978152;28;20667;-70
2023/08/03 00:39:39;;;;;;;1.40;1.27;;;21.50;80.50;;;;;;4972792;28;20246;-70
2023/08/03 00:42:06;;;;;;;1.80;1.10;;;21.50;80.40;;;;;;5011871;28;20184;-71
2023/08/03 00:44:33;;;;;;;1.60;1.08;;;21.50;80.40;;;;;;5009404;28;20214;-70
2023/08/03 00:47:00;;;;;;;1.20;1.10;;;21.50;80.40;;;;;;5000172;28;20258;-70
2023/08/03 00:49:28;;;;;;;1.63;1.20;;;21.50;80.40;;;;;;5008179;28;20208;-70
2023/08/03 00:51:58;;;;;;;1.70;1.23;;;21.50;80.40;;;;;;4982558;28;20195;-70
2023/08/03 00:54:24;;;;;;;1.30;1.20;;;21.60;80.30;;;;;;4985198;28;20211;-71
2023/08/03 00:56:50;;;;;;;1.58;1.10;;;21.50;80.20;;;;;;4997543;28;20238;-70
2023/08/03 00:59:16;;;;;;;1.27;1.15;;;21.50;80.20;;;;;;4977311;28;20272;-70
2023/08/03 01:01:42;;;;;;;3.40;1.35;;;21.50;80.20;;;;;;4992098;28;20185;-70
2023/08/03 01:04:09;;;;;;;1.77;1.40;;;21.50;80.20;;;;;;4975892;28;20192;-71
2023/08/03 01:06:35;;;;;;;1.88;1.00;;;21.50;80.10;;;;;;4987053;28;20192;-71
2023/08/03 01:09:04;;;;;;;1.55;1.20;;;21.50;80.10;;;;;;4995390;28;20188;-71
2023/08/03 01:11:30;;;;;;;2.30;1.50;;;21.50;80.10;;;;;;5004538;28;20192;-70
2023/08/03 01:13:57;;;;;;;1.98;1.10;;;21.50;80.00;;;;;;4980743;28;20223;-71
2023/08/03 01:16:24;;;;;;;1.30;1.10;;;21.50;79.90;;;;;;4991178;28;20199;-71
2023/08/03 01:18:50;;;;;;;1.77;1.23;;;21.50;79.90;;;;;;4959002;28;20205;-71
2023/08/03 01:21:20;;;;;;;1.40;1.30;;;21.50;79.80;;;;;;4975206;28;20177;-70
2023/08/03 01:23:46;;;;;;;2.05;1.17;;;21.50;79.70;;;;;;4988344;28;20188;-70
2023/08/03 01:26:12;;;;;;;1.30;1.20;;;21.50;79.70;;;;;;4978337;28;20721;-70
2023/08/03 01:28:38;;;;;;;1.20;1.10;;;21.50;79.60;;;;;;4975027;28;20216;-70
2023/08/03 01:31:04;;;;;;;1.20;1.10;;;21.50;79.70;;;;;;5005417;28;20295;-69
2023/08/03 01:33:31;;;;;;;2.45;1.20;;;21.50;79.50;;;;;;5010588;28;20703;-70
2023/08/03 01:35:57;;;;;;;1.17;1.08;;;21.50;79.70;;;;;;4986541;28;20267;-70
2023/08/03 01:38:22;;;;;;;1.60;1.30;;;21.50;79.50;;;;;;4984943;28;20303;-70
2023/08/03 01:40:48;;;;;;;1.10;1.00;;;21.50;79.60;;;;;;4980409;28;20191;-70
2023/08/03 01:43:14;;;;;;;2.15;1.20;;;21.50;79.50;;;;;;4977132;28;20208;-70
2023/08/03 01:45:40;;;;;;;1.25;1.13;;;21.50;79.60;;;;;;4959252;28;20193;-71
2023/08/03 01:48:05;;;;;;;1.20;1.02;;;21.50;79.50;;;;;;4998141;28;20208;-70
2023/08/03 01:50:31;;;;;;;2.13;1.27;;;21.50;79.50;;;;;;5003673;28;20231;-70
2023/08/03 01:52:57;;;;;;;1.35;1.20;;;21.50;79.40;;;;;;4978147;28;20188;-70
2023/08/03 01:55:23;;;;;;;1.48;1.38;;;21.50;79.50;;;;;;5010845;28;20216;-70
2023/08/03 01:57:48;;;;;;;1.85;1.17;;;21.50;79.40;;;;;;4965195;28;20207;-70
2023/08/03 02:00:14;;;;;;;1.13;1.02;;;21.50;79.40;;;;;;4967337;28;20218;-72
2023/08/03 02:02:40;;;;;;;2.25;1.27;;;21.50;79.50;;;;;;4986679;28;20188;-70
2023/08/03 02:05:07;;;;;;;2.05;1.20;;;21.50;79.40;;;;;;4994330;28;20194;-72
2023/08/03 02:07:53;;;;;;;1.52;1.20;;;21.50;79.40;;;;;;4977875;28;20217;-71
2023/08/03 02:10:23;;;;;;;1.38;1.10;;;21.50;79.30;;;;;;4985584;28;20192;-71
2023/08/03 02:12:48;;;;;;;1.52;1.20;;;21.50;79.30;;;;;;5006915;28;20196;-70
2023/08/03 02:15:15;;;;;;;1.20;1.10;;;21.50;79.30;;;;;;4997937;28;20219;-71
2023/08/03 02:17:42;;;;;;;1.55;1.00;;;21.40;79.20;;;;;;5014665;28;20227;-70
2023/08/03 02:20:10;;;;;;;1.73;1.15;;;21.50;79.00;;;;;;4970743;28;20182;-70
2023/08/03 02:22:35;;;;;;;2.10;1.40;;;21.50;79.20;;;;;;4962355;28;20224;-71
2023/08/03 02:25:02;;;;;;;1.30;1.00;;;21.50;79.20;;;;;;4994770;28;20227;-70
2023/08/03 02:27:28;;;;;;;1.25;1.02;;;21.40;79.10;;;;;;4986459;28;20234;-70
2023/08/03 02:29:54;;;;;;;2.53;1.20;;;21.50;79.10;;;;;;4996292;28;20193;-71
2023/08/03 02:32:21;;;;;;;1.52;1.02;;;21.50;79.00;;;;;;4995222;28;20196;-71
2023/08/03 02:34:48;;;;;;;1.27;1.05;;;21.50;79.00;;;;;;4998334;28;20227;-72
2023/08/03 02:37:16;;;;;;;1.40;0.82;;;21.50;79.10;;;;;;4989540;28;20208;-70
2023/08/03 02:39:44;;;;;;;1.23;1.13;;;21.50;79.10;;;;;;4977170;28;20284;-70
2023/08/03 02:42:09;;;;;;;1.45;1.00;;;21.40;78.90;;;;;;4985532;28;20184;-72
2023/08/03 02:44:39;;;;;;;1.45;1.00;;;21.40;78.90;;;;;;4971066;28;20199;-70
2023/08/03 02:47:07;;;;;;;1.48;1.20;;;21.50;79.00;;;;;;4994298;28;20213;-70
2023/08/03 02:49:33;;;;;;;2.22;1.00;;;21.50;79.00;;;;;;4994539;28;20251;-70
2023/08/03 02:52:02;;;;;;;1.08;1.00;;;21.40;78.90;;;;;;4962597;28;20189;-70
2023/08/03 02:54:39;;;;;;;1.40;1.10;;;21.40;78.80;;;;;;4994186;28;20221;-71
2023/08/03 02:57:05;;;;;;;2.22;1.17;;;21.40;78.80;;;;;;4985687;28;20232;-71
2023/08/03 02:59:31;;;;;;;1.30;1.20;;;21.40;78.80;;;;;;4962163;28;20189;-70
2023/08/03 03:01:57;;;;;;;0.93;0.90;;;21.40;78.80;;;;;;4999372;28;20192;-70
2023/08/03 03:04:29;;;;;;;1.73;1.00;;;21.40;78.70;;;;;;5004260;28;20188;-71
2023/08/03 03:06:54;;;;;;;1.25;0.90;;;21.40;78.70;;;;;;4998808;28;20246;-70
2023/08/03 03:09:20;;;;;;;1.67;1.10;;;21.40;78.60;;;;;;4996944;28;20251;-70
2023/08/03 03:11:51;;;;;;;1.20;1.10;;;21.40;78.70;;;;;;4990049;28;20191;-70
2023/08/03 03:14:17;;;;;;;1.08;0.80;;;21.40;78.70;;;;;;4997389;28;20211;-70
2023/08/03 03:16:43;;;;;;;2.28;1.42;;;21.40;78.70;;;;;;4980637;28;20188;-70
2023/08/03 03:19:09;;;;;;;1.23;0.95;;;21.40;78.60;;;;;;4981295;28;20187;-70
2023/08/03 03:21:36;;;;;;;1.27;1.05;;;21.40;78.60;;;;;;4986857;28;20235;-71
2023/08/03 03:24:01;;;;;;;1.20;1.10;;;21.40;78.60;;;;;;5001807;28;20652;-71
2023/08/03 03:26:27;;;;;;;2.10;1.20;;;21.40;78.60;;;;;;4994542;28;20196;-70
2023/08/03 03:28:53;;;;;;;1.67;0.80;;;21.40;78.40;;;;;;5010162;28;20236;-70
2023/08/03 03:31:26;;;;;;;1.05;0.95;;;21.40;78.50;;;;;;4994615;28;20191;-70
2023/08/03 03:33:52;;;;;;;2.42;1.00;;;21.40;78.40;;;;;;4989751;28;20262;-71
2023/08/03 03:36:18;;;;;;;0.93;0.82;;;21.40;78.50;;;;;;4988491;28;20191;-71
2023/08/03 03:38:44;;;;;;;1.38;1.27;;;21.40;78.40;;;;;;4992797;28;20209;-71
2023/08/03 03:41:09;;;;;;;1.58;0.90;;;21.40;78.40;;;;;;4999769;28;20188;-70
2023/08/03 03:43:40;;;;;;;1.27;1.10;;;21.40;78.40;;;;;;4978563;28;20192;-71
2023/08/03 03:46:06;;;;;;;1.00;0.88;;;21.40;78.40;;;;;;4993109;28;20243;-69
2023/08/03 03:48:32;;;;;;;0.98;0.77;;;21.40;78.40;;;;;;4986065;28;20266;-70
2023/08/03 03:51:02;;;;;;;1.00;0.90;;;21.40;78.40;;;;;;4981292;28;20204;-70
2023/08/03 03:53:28;;;;;;;1.27;1.00;;;21.40;78.40;;;;;;4995949;28;20219;-70
2023/08/03 03:55:54;;;;;;;1.00;0.80;;;21.40;78.40;;;;;;4988501;28;20188;-70
2023/08/03 03:58:23;;;;;;;1.77;0.90;;;21.40;78.40;;;;;;5012815;28;20282;-70
2023/08/03 04:00:49;;;;;;;1.17;0.90;;;21.40;78.40;;;;;;5009185;28;20613;-71
2023/08/03 04:03:15;;;;;;;0.93;0.90;;;21.40;78.30;;;;;;4967701;28;20222;-71
2023/08/03 04:05:40;;;;;;;1.38;1.00;;;21.40;78.40;;;;;;4993864;28;20188;-73
2023/08/03 04:08:07;;;;;;;1.27;0.90;;;21.40;78.40;;;;;;4992670;28;20215;-70
2023/08/03 04:10:35;;;;;;;1.58;1.05;;;21.40;78.30;;;;;;4993039;28;20184;-69
2023/08/03 04:13:00;;;;;;;1.73;1.10;;;21.40;78.30;;;;;;4965548;28;20188;-70
2023/08/03 04:15:26;;;;;;;1.10;1.00;;;21.40;78.30;;;;;;4995681;28;20258;-70
2023/08/03 04:17:52;;;;;;;1.38;0.90;;;21.40;78.30;;;;;;4960099;28;20201;-70
2023/08/03 04:20:24;;;;;;;0.93;0.80;;;21.40;78.20;;;;;;5000697;28;20279;-71
2023/08/03 04:22:49;;;;;;;1.00;0.85;;;21.40;78.30;;;;;;4971725;28;20187;-71
2023/08/03 04:25:18;;;;;;;1.70;0.73;;;21.40;78.30;;;;;;4988735;28;20181;-70
2023/08/03 04:27:50;;;;;;;1.55;0.85;;;21.40;78.30;;;;;;4992594;28;20209;-70
2023/08/03 04:30:21;;;;;;;0.95;0.95;;;21.40;78.20;;;;;;4999972;28;20187;-70
2023/08/03 04:32:47;;;;;;;1.25;1.00;;;21.40;78.30;;;;;;4968690;28;20738;-70
2023/08/03 04:35:14;;;;;;;1.17;0.93;;;21.40;78.10;;;;;;4965643;28;20200;-70
2023/08/03 04:37:44;;;;;;;1.23;0.85;;;21.40;78.10;;;;;;5003661;28;20204;-71
2023/08/03 04:40:10;;;;;;;1.05;0.80;;;21.40;78.10;;;;;;4989964;28;20200;-70
2023/08/03 04:42:36;;;;;;;1.30;1.00;;;21.40;78.10;;;;;;5008383;28;20238;-70
2023/08/03 04:45:02;;;;;;;1.08;0.90;;;21.40;78.10;;;;;;4959805;28;20196;-70
2023/08/03 04:47:28;;;;;;;1.23;1.00;;;21.40;78.10;;;;;;4992144;28;20204;-70
2023/08/03 04:49:57;;;;;;;0.93;0.70;;;21.40;78.20;;;;;;4980030;28;20194;-70
2023/08/03 04:52:23;;;;;;;1.60;0.93;;;21.40;78.10;;;;;;5004396;28;20189;-70
2023/08/03 04:54:48;;;;;;;0.60;0.60;;;21.40;78.10;;;;;;4994583;28;20216;-70
2023/08/03 04:57:15;;;;;;;0.85;0.85;;;21.40;78.20;;;;;;4986875;28;20215;-70
2023/08/03 04:59:41;;;;;;;1.45;0.90;;;21.40;78.10;;;;;;4977456;28;20219;-71
2023/08/03 05:02:08;;;;;;;1.05;0.90;;;21.40;78.10;;;;;;4989168;28;20188;-70
2023/08/03 05:04:33;;;;;;;0.98;0.82;;;21.40;78.10;;;;;;4970740;28;20668;-71
2023/08/03 05:07:01;;;;;;;1.10;0.85;;;21.40;78.10;;;;;;4975690;28;20204;-70
2023/08/03 05:09:27;;;;;;;0.80;0.80;;;21.40;78.00;;;;;;5007566;28;20187;-70
2023/08/03 05:11:53;;;;;;;0.90;0.70;;;21.40;78.00;;;;;;4987210;28;20219;-70
2023/08/03 05:14:19;;;;;;;1.10;0.90;;;21.40;78.00;;;;;;5003190;28;20200;-71
2023/08/03 05:16:45;;;;;;;1.13;0.70;;;21.40;78.00;;;;;;4968494;28;20184;-71
2023/08/03 05:19:10;;;;;;;1.45;0.85;;;21.40;77.90;;;;;;4997045;28;20192;-71
2023/08/03 05:21:36;;;;;;;1.08;0.98;;;21.40;77.90;;;;;;4994472;28;20670;-71
2023/08/03 05:24:02;;;;;;;0.73;0.73;;;21.40;78.00;;;;;;5002669;28;20188;-71
2023/08/03 05:26:32;;;;;;;0.70;0.50;;;21.40;78.00;;;;;;4992178;28;20200;-71
2023/08/03 05:28:58;;;;;;;0.73;0.70;;;21.40;78.00;;;;;;4978385;28;20275;-70
2023/08/03 05:31:24;;;;;;;1.23;0.80;;;21.40;78.70;;;;;;4988260;28;20204;-71
2023/08/03 05:33:50;;;;;;;0.60;0.57;;;21.40;77.90;;;;;;4977629;28;20221;-70
2023/08/03 05:36:16;;;;;;;0.82;0.65;;;21.40;77.80;;;;;;4978596;28;20216;-70
2023/08/03 05:38:42;;;;;;;0.90;0.73;;;21.40;77.90;;;;;;4970147;28;20236;-70
2023/08/03 05:41:15;;;;;;;0.90;0.68;;;21.40;77.80;;;;;;5012221;28;20219;-70
2023/08/03 05:43:42;;;;;;;1.13;0.82;;;21.40;77.70;;;;;;4993497;28;20543;-70
2023/08/03 05:46:13;;;;;;;0.75;0.70;;;21.30;77.70;;;;;;5003599;28;20191;-69
2023/08/03 05:48:39;;;;;;;1.77;1.00;;;21.40;77.60;;;;;;4994100;28;20698;-72
2023/08/03 05:51:05;;;;;;;0.90;0.80;;;21.40;77.80;;;;;;4982345;28;20192;-71
2023/08/03 05:53:32;;;;;;;0.80;0.70;;;21.40;77.70;;;;;;4990505;28;20192;-70
2023/08/03 05:55:59;;;;;;;1.52;1.00;;;21.40;77.70;;;;;;4994578;28;20184;-70
2023/08/03 05:58:24;;;;;;;1.02;0.82;;;21.40;77.70;;;;;;4987694;28;20216;-70
2023/08/03 06:00:50;;;;;;;0.90;0.68;;;21.40;77.60;;;;;;5009599;28;20188;-71
2023/08/03 06:03:18;;;;;;;1.05;0.80;;;21.30;77.50;;;;;;4975033;28;20656;-70
2023/08/03 06:05:48;;;;;;;1.58;0.77;;;21.40;77.60;;;;;;4968203;28;20633;-71
2023/08/03 06:08:19;;;;;;;0.50;0.50;;;21.40;77.70;;;;;;4986095;28;20705;-71
2023/08/03 06:10:54;;;;;;;0.98;0.70;;;21.40;77.50;;;;;;4984990;28;20247;-70
2023/08/03 06:13:28;;;;;;;0.95;0.80;;;21.40;77.40;;;;;;4958530;28;20188;-72
2023/08/03 06:15:54;;;;;;;0.70;0.70;;;21.30;77.30;;;;;;5001429;28;20244;-71
2023/08/03 06:18:21;;;;;;;1.30;0.73;;;21.30;77.40;;;;;;4988473;28;20295;-72
2023/08/03 06:20:51;;;;;;;1.00;0.82;;;21.40;77.60;;;;;;4974447;28;20697;-70
2023/08/03 06:23:25;;;;;;;0.80;0.80;;;21.40;77.40;;;;;;4979952;28;20192;-71
2023/08/03 06:25:58;;;;;;;0.70;0.60;;;21.40;77.40;;;;;;4994255;28;20183;-70
2023/08/03 06:28:25;;;;;;;1.02;0.73;;;21.30;77.30;;;;;;4995993;28;20209;-70
2023/08/03 06:30:52;;;;;;;0.70;0.70;;;21.30;77.30;;;;;;4990781;28;20268;-71
2023/08/03 06:33:23;;;;;;;0.90;0.82;;;21.40;77.40;;;;;;4982847;28;20189;-72
2023/08/03 06:35:53;;;;;;;0.95;0.70;;;21.40;77.40;;;;;;4983768;28;20573;-70
2023/08/03 06:38:22;;;;;;;0.90;0.75;;;21.30;77.30;;;;;;4994033;28;20200;-71
2023/08/03 06:40:49;;;;;;;0.60;0.60;;;21.40;77.40;;;;;;4986155;28;20204;-70
2023/08/03 06:43:15;;;;;;;1.10;0.70;;;21.40;77.40;;;;;;4993923;28;20180;-70
2023/08/03 06:45:42;;;;;;;0.82;0.80;;;21.30;77.30;;;;;;4977594;28;20197;-71
2023/08/03 06:48:10;;;;;;;0.65;0.65;;;21.30;77.30;;;;;;4989993;28;20702;-70
2023/08/03 06:50:36;;;;;;;0.95;0.70;;;21.30;77.30;;;;;;4974766;28;20205;-70
2023/08/03 06:53:03;;;;;;;0.93;0.60;;;21.40;77.30;;;;;;5006769;28;20208;-70
2023/08/03 06:55:30;;;;;;;0.60;0.60;;;21.30;77.20;;;;;;4974423;28;20715;-70
2023/08/03 06:57:57;;;;;;;0.80;0.70;;;21.30;77.20;;;;;;4999886;28;20251;-70
2023/08/03 07:00:23;;;;;;;0.75;0.70;;;21.30;77.10;;;;;;4999788;28;20191;-70
2023/08/03 07:02:50;;;;;;;0.63;0.63;;;21.30;77.30;;;;;;4988584;28;20191;-70
2023/08/03 07:05:16;;;;;;;0.82;0.60;;;21.30;77.20;;;;;;4994070;28;20204;-70
2023/08/03 07:07:42;;;;;;;0.50;0.50;;;21.40;77.40;;;;;;4961393;28;20205;-73
2023/08/03 07:10:08;;;;;;;1.30;0.68;;;21.30;77.10;;;;;;5005508;28;20195;-71
2023/08/03 07:12:35;;;;;;;0.82;0.75;;;21.30;77.20;;;;;;4981001;28;20191;-70
2023/08/03 07:15:01;;;;;;;0.68;0.68;;;21.30;77.10;;;;;;4978377;28;20209;-70
2023/08/03 07:17:27;;;;;;;0.73;0.63;;;21.30;77.20;;;;;;4991527;28;20200;-70
2023/08/03 07:19:54;;;;;;;0.90;0.70;;;21.30;77.10;;;;;;4989100;28;20194;-70
2023/08/03 07:22:21;;;;;;;0.73;0.73;;;21.30;77.10;;;;;;4997448;28;20219;-70
2023/08/03 07:24:47;;;;;;;0.50;0.50;;;21.30;77.10;;;;;;5012438;28;20180;-70
2023/08/03 07:27:13;;;;;;;0.98;0.80;;;21.30;77.10;;;;;;4985579;28;20200;-70
2023/08/03 07:29:38;;;;;;;1.63;0.80;;;21.30;77.10;;;;;;5003152;28;20196;-72
2023/08/03 07:32:05;;;;;;;1.35;0.65;;;21.30;77.00;;;;;;5002550;28;20288;-70
2023/08/03 07:34:31;;;;;;;0.90;0.50;;;21.30;77.00;;;;;;4991892;28;20218;-71
2023/08/03 07:36:58;;;;;;;0.85;0.70;;;21.40;77.10;;;;;;4988473;28;20197;-70
2023/08/03 07:39:24;;;;;;;0.60;0.60;;;21.30;76.90;;;;;;4996933;28;20200;-70
2023/08/03 07:41:50;;;;;;;0.77;0.70;;;21.30;76.90;;;;;;5002294;28;20188;-70
2023/08/03 07:44:16;;;;;;;0.80;0.50;;;21.30;76.80;;;;;;4972682;28;20195;-70
2023/08/03 07:46:44;;;;;;;0.80;0.70;;;21.30;77.00;;;;;;4980719;28;20200;-70
2023/08/03 07:49:09;;;;;;;0.60;0.60;;;21.30;76.90;;;;;;4995293;28;20199;-70
2023/08/03 07:51:36;;;;;;;0.60;0.60;;;21.30;76.90;;;;;;5009486;28;20200;-72
2023/08/03 07:54:02;;;;;;;0.63;0.63;;;21.30;76.90;;;;;;4967880;28;20216;-72
2023/08/03 07:56:28;;;;;;;0.80;0.80;;;21.30;76.90;;;;;;4982635;28;20188;-70
2023/08/03 07:58:54;;;;;;;0.60;0.60;;;21.30;76.90;;;;;;4985860;28;20222;-70
2023/08/03 08:01:21;;;;;;;0.60;0.60;;;21.30;76.70;;;;;;4976049;28;20189;-70
2023/08/03 08:03:47;;;;;;;0.60;0.60;;;21.30;76.70;;;;;;4968629;28;20194;-70
2023/08/03 08:06:17;;;;;;;0.70;0.70;;;21.40;76.70;;;;;;5012360;28;20294;-70
2023/08/03 08:08:44;;;;;;;0.60;0.60;;;21.40;76.50;;;;;;4979364;28;20295;-69
2023/08/03 08:11:13;;;;;;;0.73;0.70;;;21.30;76.10;;;;;;4960588;28;20189;-71
2023/08/03 08:13:40;;;;;;;0.75;0.52;;;21.40;76.40;;;;;;4967701;28;20188;-70
2023/08/03 08:16:09;;;;;;;0.70;0.70;;;21.40;76.30;;;;;;5001641;28;20287;-70
2023/08/03 08:18:36;;;;;;;0.98;0.60;;;21.50;76.30;;;;;;4976849;28;20204;-70
2023/08/03 08:21:08;;;;;;;0.77;0.75;;;21.50;76.10;;;;;;5008864;28;20207;-70
2023/08/03 08:23:34;;;;;;;0.80;0.73;;;21.50;76.10;;;;;;5006950;28;20187;-70
2023/08/03 08:26:00;;;;;;;0.65;0.65;;;21.50;76.20;;;;;;4977925;28;20261;-68
2023/08/03 08:28:28;;;;;;;0.85;0.85;;;21.50;75.80;;;;;;5005771;28;20212;-70
2023/08/03 08:30:53;;;;;;;0.80;0.70;;;21.50;75.80;;;;;;4987104;28;20192;-71
2023/08/03 08:33:19;;;;;;;1.13;0.65;;;21.50;75.90;;;;;;4980313;28;20184;-69
2023/08/03 08:35:49;;;;;;;0.68;0.60;;;21.50;75.60;;;;;;4995657;28;20228;-70
2023/08/03 08:38:16;;;;;;;0.68;0.68;;;21.50;75.90;;;;;;4995194;28;20208;-70
2023/08/03 08:40:44;;;;;;;0.68;0.68;;;21.50;75.80;;;;;;5011928;28;20199;-70
2023/08/03 08:43:10;;;;;;;0.77;0.68;;;21.50;75.40;;;;;;4976936;28;20189;-70
2023/08/03 08:45:37;;;;;;;1.27;0.70;;;21.50;75.30;;;;;;5006579;28;20251;-70
2023/08/03 08:48:05;;;;;;;0.60;0.60;;;21.50;75.40;;;;;;4987111;28;20238;-70
2023/08/03 08:50:32;;;;;;;0.60;0.60;;;21.50;75.70;;;;;;4982079;28;20177;-70
2023/08/03 08:52:58;;;;;;;0.75;0.60;;;21.50;75.10;;;;;;4989816;28;20185;-71
2023/08/03 08:55:29;;;;;;;0.60;0.60;;;21.50;75.60;;;;;;4997491;28;20291;-70
2023/08/03 08:57:57;;;;;;;0.50;0.50;;;21.50;75.10;;;;;;4970884;28;20220;-69
2023/08/03 09:00:25;;;;;;;0.60;0.60;;;21.50;75.30;;;;;;5000588;28;20676;-70
2023/08/03 09:03:03;;;;;;;0.52;0.52;;;21.50;75.40;;;;;;5007934;28;20210;-69
2023/08/03 09:05:29;;;;;;;1.05;0.47;;;21.60;75.60;;;;;;4979213;28;20223;-70
2023/08/03 09:08:07;;;;;;;1.30;0.60;;;21.50;75.20;;;;;;5002944;28;20270;-70
2023/08/03 09:10:54;;;;;;;0.70;0.70;;;21.60;75.20;;;;;;4991894;28;20207;-70
2023/08/03 09:13:48;;;;;;;0.57;0.50;;;21.50;75.50;;;;;;4987130;28;20192;-70
2023/08/03 09:16:24;;;;;;;0.52;0.50;;;21.60;75.30;;;;;;4990815;28;20758;-70
2023/08/03 09:18:50;;;;;;;0.63;0.55;;;21.60;75.00;;;;;;4987948;28;20213;-70
2023/08/03 09:21:17;;;;;;;0.60;0.60;;;21.50;75.20;;;;;;4984870;28;20272;-70
2023/08/03 09:23:43;;;;;;;1.10;0.57;;;21.60;75.40;;;;;;4959241;28;20193;-70
2023/08/03 09:26:10;;;;;;;1.17;0.60;;;21.60;75.40;;;;;;4999593;28;20188;-68
2023/08/03 09:28:38;;;;;;;0.70;0.50;;;21.60;75.50;;;;;;4991291;28;20270;-70
2023/08/03 09:31:05;;;;;;;0.98;0.73;;;21.60;75.40;;;;;;4984613;28;20185;-70
2023/08/03 09:33:33;;;;;;;1.23;0.90;;;21.60;75.50;;;;;;4978660;28;20196;-70
2023/08/03 09:36:14;;;;;;;0.70;0.70;;;21.60;75.40;;;;;;4994818;28;20218;-70
2023/08/03 09:38:41;;;;;;;0.68;0.68;;;21.60;75.30;;;;;;4988178;28;20267;-71
2023/08/03 09:41:08;;;;;;;0.47;0.47;;;21.60;75.30;;;;;;4999743;28;20192;-70
2023/08/03 09:43:34;;;;;;;0.82;0.50;;;21.60;75.40;;;;;;4975259;28;20240;-70
2023/08/03 09:46:01;;;;;;;0.50;0.50;;;21.60;75.50;;;;;;4991550;28;20203;-69
2023/08/03 09:48:27;;;;;;;1.75;0.85;;;21.60;75.30;;;;;;4974169;28;20217;-69
2023/08/03 09:50:58;;;;;;;0.73;0.60;;;21.60;75.40;;;;;;4987478;28;20203;-70
2023/08/03 09:53:46;;;;;;;0.60;0.60;;;21.60;75.40;;;;;;4966597;28;20192;-70
2023/08/03 09:56:23;;;;;;;0.65;0.50;;;21.60;75.40;;;;;;4984786;28;20200;-71
2023/08/03 09:58:59;;;;;;;0.55;0.55;;;21.60;75.30;;;;;;4987739;28;20230;-70
2023/08/03 10:01:28;;;;;;;1.55;0.77;;;21.60;75.20;;;;;;4978655;28;20240;-70
2023/08/03 10:04:04;;;;;;;0.73;0.70;;;21.60;75.30;;;;;;4994357;28;20184;-69
2023/08/03 10:06:36;;;;;;;0.70;0.50;;;21.60;75.40;;;;;;4990186;28;20279;-70
2023/08/03 10:09:05;;;;;;;0.93;0.70;;;21.60;75.30;;;;;;4974876;28;20215;-70
2023/08/03 10:11:57;;;;;;;0.93;0.52;;;21.60;75.50;;;;;;4991380;28;20239;-70
2023/08/03 10:14:32;;;;;;;0.60;0.60;;;21.60;75.30;;;;;;4985938;28;20212;-70
2023/08/03 10:17:00;;;;;;;1.00;0.60;;;21.60;75.40;;;;;;4986334;28;20236;-70
2023/08/03 10:19:28;;;;;;;0.70;0.60;;;21.60;75.30;;;;;;4995003;28;20196;-70
2023/08/03 10:21:54;;;;;;;0.43;0.43;;;21.60;75.40;;;;;;4978960;28;20280;-70
2023/08/03 10:24:20;;;;;;;0.57;0.55;;;21.60;75.40;;;;;;4985373;28;20197;-70
2023/08/03 10:27:13;;;;;;;0.55;0.50;;;21.60;76.10;;;;;;4977699;28;20596;-70
2023/08/03 10:29:56;;;;;;;1.00;0.70;;;21.60;75.40;;;;;;4958718;28;20187;-70
2023/08/03 10:32:28;;;;;;;0.80;0.70;;;21.70;75.40;;;;;;5002689;28;20195;-70
2023/08/03 10:34:59;;;;;;;0.50;0.50;;;21.70;75.30;;;;;;5008481;28;20291;-71
2023/08/03 10:37:26;;;;;;;0.70;0.68;;;21.60;75.40;;;;;;4989606;28;20586;-70
2023/08/03 10:39:59;;;;;;;0.68;0.60;;;21.60;75.20;;;;;;4991038;28;20251;-69
2023/08/03 10:42:33;;;;;;;0.60;0.60;;;21.60;75.00;;;;;;4978187;28;20267;-70
2023/08/03 10:45:26;;;;;;;1.30;0.60;;;21.60;74.90;;;;;;4978197;28;20196;-70
2023/08/03 10:47:53;;;;;;;0.98;0.50;;;21.60;75.10;;;;;;4992806;28;20207;-70
2023/08/03 10:50:19;;;;;;;0.60;0.60;;;21.60;75.10;;;;;;5003771;28;20276;-70
2023/08/03 10:52:45;;;;;;;0.57;0.57;;;21.70;75.20;;;;;;4978472;28;20243;-70
2023/08/03 10:55:26;;;;;;;0.50;0.40;;;21.70;75.20;;;;;;4995479;28;20205;-72
2023/08/03 10:57:55;;;;;;;1.38;0.50;;;21.70;75.20;;;;;;4997469;28;20211;-69
2023/08/03 11:00:21;;;;;;;0.50;0.50;;;21.70;75.30;;;;;;4989157;28;20184;-70
2023/08/03 11:02:47;;;;;;;0.70;0.55;;;21.70;75.40;;;;;;4997591;28;20223;-70
2023/08/03 11:05:13;;;;;;;0.68;0.50;;;21.70;75.30;;;;;;4987971;28;20231;-70
2023/08/03 11:07:42;;;;;;;0.60;0.40;;;21.70;75.30;;;;;;4982314;28;20215;-68
2023/08/03 11:10:14;;;;;;;0.77;0.40;;;21.70;75.30;;;;;;5013080;28;20184;-70
2023/08/03 11:12:42;;;;;;;1.08;0.60;;;21.70;75.20;;;;;;4990973;28;20192;-70
2023/08/03 11:15:09;;;;;;;0.80;0.60;;;21.70;75.10;;;;;;4980697;28;20295;-70
2023/08/03 11:17:37;;;;;;;0.63;0.60;;;21.70;75.30;;;;;;4990525;28;20292;-70
2023/08/03 11:20:07;;;;;;;0.63;0.60;;;21.70;75.10;;;;;;4985668;28;20185;-70
2023/08/03 11:22:33;;;;;;;0.50;0.50;;;21.70;75.30;;;;;;4989840;28;20238;-70
2023/08/03 11:25:05;;;;;;;0.57;0.50;;;21.70;75.00;;;;;;4989599;28;20730;-70
2023/08/03 11:27:31;;;;;;;0.50;0.50;;;21.70;75.10;;;;;;4977526;28;20216;-70
2023/08/03 11:29:57;;;;;;;0.43;0.43;;;21.70;74.90;;;;;;4992847;28;20267;-69
2023/08/03 11:32:31;;;;;;;0.77;0.60;;;21.70;75.00;;;;;;4994398;28;20197;-71
2023/08/03 11:35:04;;;;;;;0.82;0.77;;;21.70;74.80;;;;;;4992774;28;20211;-70
2023/08/03 11:37:34;;;;;;;0.57;0.57;;;21.70;74.70;;;;;;4993246;28;20215;-70
2023/08/03 11:40:04;;;;;;;1.05;0.60;;;21.70;74.80;;;;;;4993646;28;20192;-70
2023/08/03 11:42:32;;;;;;;0.43;0.43;;;21.80;74.90;;;;;;4996799;28;20331;-70
2023/08/03 11:44:57;;;;;;;0.73;0.50;;;21.80;74.90;;;;;;5004555;28;20266;-70
2023/08/03 11:47:24;;;;;;;0.57;0.57;;;21.70;74.70;;;;;;5001938;28;20302;-70
2023/08/03 11:49:55;;;;;;;1.55;0.88;;;21.70;75.20;;;;;;4999475;28;20199;-70
2023/08/03 11:52:22;;;;;;;0.50;0.50;;;21.70;74.90;;;;;;4980751;28;20196;-70
2023/08/03 11:54:48;;;;;;;0.60;0.52;;;21.70;75.20;;;;;;5005875;28;20204;-70
2023/08/03 12:00:02;;;;;;;0.57;0.57;;;21.70;75.10;;;;;;4994365;28;20188;-70
2023/08/03 12:02:41;;;;;;;0.50;0.50;;;21.70;75.50;;;;;;5012898;28;20270;-70
2023/08/03 12:05:07;;;;;;;0.77;0.70;;;21.70;75.20;;;;;;4988220;28;20203;-71
2023/08/03 12:07:33;;;;;;;0.65;0.40;;;21.70;75.20;;;;;;4991538;28;20215;-70
2023/08/03 12:09:59;;;;;;;0.95;0.55;;;21.70;75.50;;;;;;5005708;28;20203;-70
2023/08/03 12:12:26;;;;;;;0.73;0.50;;;21.70;74.70;;;;;;4996015;28;20198;-70
2023/08/03 12:14:51;;;;;;;0.40;0.32;;;21.70;75.00;;;;;;4996188;28;20212;-71
2023/08/03 12:17:17;;;;;;;0.63;0.63;;;21.70;74.80;;;;;;4995885;28;20275;-70
2023/08/03 12:19:43;;;;;;;0.60;0.60;;;21.70;74.80;;;;;;5007401;28;20189;-71
2023/08/03 12:22:08;;;;;;;0.70;0.50;;;21.70;74.80;;;;;;4960574;28;20189;-69
2023/08/03 12:24:34;;;;;;;0.50;0.50;;;21.70;74.70;;;;;;4971791;28;20192;-70
2023/08/03 12:27:03;;;;;;;0.98;0.50;;;21.70;74.70;;;;;;4996705;28;20197;-72
2023/08/03 12:29:29;;;;;;;0.47;0.47;;;21.70;74.70;;;;;;4971175;28;20188;-70
2023/08/03 12:31:55;;;;;;;0.50;0.50;;;21.70;74.70;;;;;;4995695;28;20196;-71
2023/08/03 12:34:21;;;;;;;0.60;0.57;;;21.70;74.80;;;;;;5010049;28;20216;-69
2023/08/03 12:36:46;;;;;;;0.50;0.50;;;21.70;74.70;;;;;;4981223;28;20242;-72
2023/08/03 12:39:12;;;;;;;1.27;0.60;;;21.70;74.80;;;;;;4979622;28;20221;-70
2023/08/03 12:41:38;;;;;;;0.70;0.52;;;21.70;74.70;;;;;;5004533;28;20689;-70
2023/08/03 12:44:04;;;;;;;0.50;0.50;;;21.70;74.70;;;;;;4991695;28;20187;-70
2023/08/03 12:46:29;;;;;;;1.38;0.40;;;21.70;74.70;;;;;;5009811;28;20181;-70
2023/08/03 12:48:58;;;;;;;0.77;0.57;;;21.70;74.80;;;;;;4974579;28;20211;-70
2023/08/03 12:51:24;;;;;;;0.40;0.40;;;21.70;75.10;;;;;;5009399;28;20225;-70
2023/08/03 12:53:50;;;;;;;0.60;0.60;;;21.70;75.00;;;;;;4989449;28;20183;-70